Time;durP1;ratioP1;P1;durP2;ratioP2;P2;SDS_P1;SDS_P2;PMS_P1;PMS_P2;Temp;Humidity;BMP_temperature;BMP_pressure;BME280_temperature;BME280_humidity;BME280_pressure;Samples;Min_cycle;Max_cycle;Signal;HPM_P1;HPM_P2
2023/03/02 00:01:48;;;;;;;7.93;4.00;;;-2.30;99.90;;;;;;5090008;28;20483;-55
2023/03/02 00:04:20;;;;;;;5.95;3.72;;;-2.40;99.90;;;;;;5048894;28;20029;-58
2023/03/02 00:06:47;;;;;;;9.15;4.15;;;-2.40;99.40;;;;;;5090224;28;20030;-58
2023/03/02 00:09:13;;;;;;;6.65;3.88;;;-2.40;99.90;;;;;;5067628;28;20048;-57
2023/03/02 00:11:39;;;;;;;8.68;3.85;;;-2.40;99.90;;;;;;5069709;28;20083;-59
2023/03/02 00:14:05;;;;;;;8.90;4.22;;;-2.40;99.90;;;;;;5089290;28;20157;-57
2023/03/02 00:16:31;;;;;;;7.50;3.92;;;-2.40;99.90;;;;;;5087696;28;20459;-59
2023/03/02 00:18:57;;;;;;;8.30;3.90;;;-2.40;99.90;;;;;;5068526;28;20067;-57
2023/03/02 00:21:23;;;;;;;12.73;4.50;;;-2.40;99.30;;;;;;5068824;28;20045;-59
2023/03/02 00:23:50;;;;;;;8.25;4.22;;;-2.40;99.90;;;;;;5088844;28;20081;-58
2023/03/02 00:26:16;;;;;;;10.20;4.70;;;-2.40;99.90;;;;;;5050487;28;20021;-58
2023/03/02 00:28:42;;;;;;;7.97;4.28;;;-2.50;98.90;;;;;;5068702;28;20511;-58
2023/03/02 00:31:07;;;;;;;9.32;4.22;;;-2.50;98.30;;;;;;5070826;28;20024;-59
2023/03/02 00:33:33;;;;;;;12.20;4.78;;;-2.50;97.20;;;;;;5088524;28;20028;-58
2023/03/02 00:35:59;;;;;;;6.28;3.67;;;-2.50;96.50;;;;;;5052061;28;20029;-58
2023/03/02 00:38:26;;;;;;;8.68;4.00;;;-2.60;96.00;;;;;;5068431;28;20047;-58
2023/03/02 00:40:52;;;;;;;8.95;4.10;;;-2.60;96.10;;;;;;5072711;28;20119;-58
2023/03/02 00:43:17;;;;;;;7.43;3.47;;;-2.60;95.90;;;;;;5088626;28;20733;-58
2023/03/02 00:45:43;;;;;;;10.23;4.53;;;-2.60;95.40;;;;;;5053631;28;20032;-57
2023/03/02 00:48:08;;;;;;;8.98;4.80;;;-2.60;95.50;;;;;;5068214;28;20035;-58
2023/03/02 00:50:39;;;;;;;9.85;3.67;;;-2.60;96.20;;;;;;5077638;28;20032;-58
2023/03/02 00:53:07;;;;;;;10.23;3.85;;;-2.70;97.40;;;;;;5048995;28;20052;-56
2023/03/02 00:55:32;;;;;;;8.15;4.00;;;-2.70;98.70;;;;;;5074234;28;20404;-58
2023/03/02 00:57:58;;;;;;;8.82;4.40;;;-2.70;99.10;;;;;;5088059;28;20520;-58
2023/03/02 01:00:26;;;;;;;8.75;4.10;;;-2.70;98.40;;;;;;5067067;28;20500;-56
2023/03/02 01:02:51;;;;;;;9.32;4.10;;;-2.70;99.70;;;;;;5088842;28;20028;-58
2023/03/02 01:05:17;;;;;;;10.30;4.10;;;-2.80;99.30;;;;;;5067090;28;20040;-58
2023/03/02 01:07:43;;;;;;;12.32;4.80;;;-2.80;98.20;;;;;;5081793;28;20041;-57
2023/03/02 01:10:09;;;;;;;8.35;3.67;;;-2.80;97.30;;;;;;5066912;28;20392;-57
2023/03/02 01:12:34;;;;;;;10.82;4.22;;;-2.80;96.90;;;;;;5087966;28;20035;-58
2023/03/02 01:15:00;;;;;;;9.48;4.65;;;-2.80;97.10;;;;;;5066954;28;20032;-58
2023/03/02 01:17:26;;;;;;;7.18;3.80;;;-2.80;97.50;;;;;;5068645;28;20123;-58
2023/03/02 01:19:52;;;;;;;7.50;3.83;;;-2.80;98.50;;;;;;5073121;28;20029;-58
2023/03/02 01:22:19;;;;;;;5.47;2.85;;;-2.90;99.60;;;;;;5048373;28;20425;-58
2023/03/02 01:24:44;;;;;;;8.75;3.47;;;-2.90;99.90;;;;;;5076405;28;20017;-62
2023/03/02 01:27:10;;;;;;;7.70;3.70;;;-2.90;99.00;;;;;;5048575;28;20025;-61
2023/03/02 01:29:36;;;;;;;7.10;3.65;;;-2.90;98.30;;;;;;5085086;28;20024;-56
2023/03/02 01:32:02;;;;;;;8.20;3.92;;;-2.90;97.50;;;;;;5088886;28;20052;-55
2023/03/02 01:34:27;;;;;;;11.68;4.15;;;-2.90;97.30;;;;;;5066846;28;20025;-55
2023/03/02 01:36:53;;;;;;;8.27;4.15;;;-2.90;97.10;;;;;;5068195;28;20052;-51
2023/03/02 01:39:21;;;;;;;7.85;4.10;;;-3.00;97.50;;;;;;5085726;28;20103;-54
2023/03/02 01:41:48;;;;;;;9.10;4.13;;;-3.00;97.10;;;;;;5088709;28;20039;-55
2023/03/02 01:44:56;;;;;;;8.27;3.78;;;-3.00;97.30;;;;;;5066513;28;20497;-55
2023/03/02 01:47:31;;;;;;;9.07;4.10;;;-3.00;96.70;;;;;;5089673;28;20479;-54
2023/03/02 01:50:10;;;;;;;7.00;2.45;;;-3.00;97.20;;;;;;5062618;28;20036;-55
2023/03/02 01:52:37;;;;;;;6.88;3.47;;;-3.10;97.40;;;;;;5087640;28;20059;-56
2023/03/02 01:55:05;;;;;;;7.88;2.67;;;-3.10;97.20;;;;;;5059678;28;20057;-56
2023/03/02 01:57:33;;;;;;;7.05;4.32;;;-3.10;97.20;;;;;;5091636;28;20107;-55
2023/03/02 02:00:07;;;;;;;10.40;3.80;;;-3.10;96.90;;;;;;5070283;28;20405;-55
2023/03/02 02:02:33;;;;;;;9.05;3.83;;;-3.10;96.80;;;;;;5067332;28;20029;-54
2023/03/02 02:04:59;;;;;;;8.40;3.40;;;-3.10;97.00;;;;;;5067746;28;20020;-55
2023/03/02 02:07:24;;;;;;;5.85;3.53;;;-3.10;96.90;;;;;;5074311;28;20040;-54
2023/03/02 02:09:51;;;;;;;8.40;3.92;;;-3.10;96.60;;;;;;5070984;28;20037;-52
2023/03/02 02:12:19;;;;;;;7.80;4.13;;;-3.20;97.60;;;;;;5090879;28;20024;-53
2023/03/02 02:14:46;;;;;;;7.93;3.92;;;-3.20;98.10;;;;;;5070398;28;20078;-55
2023/03/02 02:17:13;;;;;;;7.45;3.72;;;-3.20;98.20;;;;;;5091767;28;20027;-55
2023/03/02 02:20:00;;;;;;;9.13;3.53;;;-3.20;98.70;;;;;;5070241;28;20416;-54
2023/03/02 02:22:49;;;;;;;7.18;3.88;;;-3.20;98.40;;;;;;5090974;28;20065;-53
2023/03/02 02:25:35;;;;;;;5.80;3.55;;;-3.20;99.90;;;;;;5039457;28;20176;-55
2023/03/02 02:28:07;;;;;;;9.57;3.83;;;-3.20;99.90;;;;;;5051857;28;20029;-55
2023/03/02 02:30:33;;;;;;;10.27;4.25;;;-3.20;99.90;;;;;;5065271;28;20037;-55
2023/03/02 02:33:00;;;;;;;6.93;3.50;;;-3.20;99.90;;;;;;5091137;28;20102;-55
2023/03/02 02:35:29;;;;;;;8.52;3.75;;;-3.20;99.90;;;;;;5055522;28;20032;-54
2023/03/02 02:38:00;;;;;;;7.22;3.53;;;-3.20;99.90;;;;;;5069830;28;20391;-52
2023/03/02 02:40:56;;;;;;;8.07;3.72;;;-3.20;99.90;;;;;;5064041;28;20052;-54
2023/03/02 02:43:22;;;;;;;6.00;3.03;;;-3.20;99.90;;;;;;5048562;28;20029;-55
2023/03/02 02:45:51;;;;;;;9.23;4.15;;;-3.30;99.90;;;;;;5069820;28;20032;-55
2023/03/02 02:48:20;;;;;;;9.13;3.58;;;-3.30;99.90;;;;;;5091509;28;20120;-55
2023/03/02 02:50:46;;;;;;;9.52;3.78;;;-3.30;99.90;;;;;;5066856;28;20059;-50
2023/03/02 02:53:16;;;;;;;9.48;3.90;;;-3.30;99.90;;;;;;5071338;28;20112;-55
2023/03/02 02:55:44;;;;;;;4.63;2.45;;;-3.30;99.90;;;;;;5065998;28;20380;-55
2023/03/02 02:58:36;;;;;;;7.22;3.63;;;-3.40;99.90;;;;;;5089939;28;20107;-55
2023/03/02 03:01:02;;;;;;;5.30;2.65;;;-3.40;99.90;;;;;;5068741;28;20075;-50
2023/03/02 03:03:31;;;;;;;7.40;2.80;;;-3.40;99.90;;;;;;5090570;28;20035;-55
2023/03/02 03:05:58;;;;;;;6.55;3.05;;;-3.40;99.90;;;;;;5050401;28;20033;-54
2023/03/02 03:08:42;;;;;;;8.00;4.03;;;-3.40;99.90;;;;;;5052108;28;20123;-54
2023/03/02 03:11:09;;;;;;;5.03;2.63;;;-3.40;99.90;;;;;;5089850;28;20032;-52
2023/03/02 03:13:36;;;;;;;6.32;3.22;;;-3.40;99.90;;;;;;5052113;28;20588;-54
2023/03/02 03:16:02;;;;;;;9.45;4.07;;;-3.40;99.90;;;;;;5070030;28;20024;-55
2023/03/02 03:18:30;;;;;;;11.00;4.00;;;-3.40;99.90;;;;;;5073106;28;20217;-55
2023/03/02 03:20:56;;;;;;;7.82;3.95;;;-3.40;99.90;;;;;;5090553;28;20059;-55
2023/03/02 03:23:22;;;;;;;8.07;3.83;;;-3.40;99.90;;;;;;5054993;28;20021;-55
2023/03/02 03:25:47;;;;;;;10.57;4.03;;;-3.40;99.90;;;;;;5069862;28;20029;-55
2023/03/02 03:28:13;;;;;;;11.52;4.25;;;-3.40;99.90;;;;;;5075241;28;20103;-54
2023/03/02 03:30:39;;;;;;;8.45;3.95;;;-3.50;99.90;;;;;;5089936;28;20043;-55
2023/03/02 03:33:04;;;;;;;10.13;3.90;;;-3.40;99.90;;;;;;5055858;28;20032;-55
2023/03/02 03:35:30;;;;;;;10.38;3.70;;;-3.50;99.90;;;;;;5069907;28;20033;-54
2023/03/02 03:37:56;;;;;;;13.70;5.22;;;-3.50;99.90;;;;;;5066240;28;20397;-54
2023/03/02 03:40:21;;;;;;;9.75;4.10;;;-3.50;99.90;;;;;;5069531;28;20040;-55
2023/03/02 03:42:47;;;;;;;8.68;4.13;;;-3.50;99.90;;;;;;5069020;28;20040;-55
2023/03/02 03:45:12;;;;;;;8.70;4.15;;;-3.50;99.90;;;;;;5069466;28;20032;-56
2023/03/02 03:47:38;;;;;;;9.05;4.35;;;-3.50;99.90;;;;;;5087604;28;20059;-52
2023/03/02 03:50:04;;;;;;;11.50;4.55;;;-3.50;99.90;;;;;;5073560;28;20423;-53
2023/03/02 03:52:30;;;;;;;11.90;4.38;;;-3.50;99.90;;;;;;5085621;28;20024;-54
2023/03/02 03:54:58;;;;;;;7.68;3.03;;;-3.50;99.90;;;;;;5090261;28;20502;-55
2023/03/02 03:57:24;;;;;;;9.90;4.30;;;-3.50;99.90;;;;;;5068244;28;20055;-55
2023/03/02 03:59:49;;;;;;;8.60;3.80;;;-3.60;99.90;;;;;;5070299;28;20048;-62
2023/03/02 04:02:15;;;;;;;7.47;3.55;;;-3.60;99.90;;;;;;5085951;28;20067;-62
2023/03/02 04:04:40;;;;;;;8.75;4.35;;;-3.60;99.90;;;;;;5089968;28;20020;-61
2023/03/02 04:07:06;;;;;;;12.93;4.75;;;-3.60;99.90;;;;;;5068067;28;20082;-62
2023/03/02 04:09:36;;;;;;;10.15;4.60;;;-3.60;99.90;;;;;;5069498;28;20037;-62
2023/03/02 04:12:02;;;;;;;7.15;3.47;;;-3.70;99.90;;;;;;5051079;28;20028;-61
2023/03/02 04:14:28;;;;;;;15.95;5.47;;;-3.60;99.90;;;;;;5069683;28;20032;-61
2023/03/02 04:16:54;;;;;;;12.68;5.60;;;-3.60;99.90;;;;;;5087325;28;20062;-62
2023/03/02 04:19:20;;;;;;;13.43;4.75;;;-3.70;99.90;;;;;;5089820;28;20028;-62
2023/03/02 04:21:48;;;;;;;10.82;4.68;;;-3.70;99.90;;;;;;5067948;28;20067;-61
2023/03/02 04:24:15;;;;;;;9.43;3.97;;;-3.70;99.90;;;;;;5069683;28;20024;-62
2023/03/02 04:26:42;;;;;;;8.98;3.67;;;-3.70;99.90;;;;;;5086950;28;20055;-61
2023/03/02 04:29:08;;;;;;;9.55;4.18;;;-3.70;99.90;;;;;;5089642;28;20035;-61
2023/03/02 04:31:35;;;;;;;13.45;5.43;;;-3.70;99.90;;;;;;5069783;28;20059;-61
2023/03/02 04:34:02;;;;;;;14.50;4.93;;;-3.70;99.90;;;;;;5067557;28;20025;-62
2023/03/02 04:36:29;;;;;;;10.88;4.63;;;-3.70;99.90;;;;;;5087591;28;20086;-61
2023/03/02 04:38:54;;;;;;;8.43;3.85;;;-3.70;99.90;;;;;;5048947;28;20675;-62
2023/03/02 04:41:20;;;;;;;8.73;3.83;;;-3.70;99.90;;;;;;5068400;28;20037;-61
2023/03/02 04:43:46;;;;;;;7.93;3.65;;;-3.80;99.90;;;;;;5065357;28;20407;-62
2023/03/02 04:46:15;;;;;;;10.55;4.35;;;-3.70;99.90;;;;;;5068753;28;20035;-61
2023/03/02 04:48:40;;;;;;;13.73;4.57;;;-3.70;99.90;;;;;;5085255;28;20107;-61
2023/03/02 04:51:05;;;;;;;12.20;4.82;;;-3.70;99.90;;;;;;5065738;28;20115;-61
2023/03/02 04:53:31;;;;;;;11.55;3.97;;;-3.80;99.90;;;;;;5086068;28;20403;-61
2023/03/02 04:55:56;;;;;;;9.82;4.50;;;-3.80;99.90;;;;;;5069388;28;20028;-62
2023/03/02 04:58:22;;;;;;;10.15;4.05;;;-3.80;99.90;;;;;;5086194;28;20446;-61
2023/03/02 05:00:47;;;;;;;9.18;3.90;;;-3.80;99.90;;;;;;5068707;28;20025;-62
2023/03/02 05:03:13;;;;;;;12.40;4.78;;;-3.80;99.90;;;;;;5086277;28;20047;-62
2023/03/02 05:05:38;;;;;;;9.63;4.03;;;-3.80;99.90;;;;;;5088859;28;20035;-62
2023/03/02 05:08:04;;;;;;;9.35;4.53;;;-3.80;99.90;;;;;;5054958;28;20083;-62
2023/03/02 05:10:29;;;;;;;9.02;4.20;;;-3.80;99.90;;;;;;5067986;28;20032;-61
2023/03/02 05:13:01;;;;;;;11.02;5.00;;;-3.80;99.90;;;;;;5085741;28;20039;-62
2023/03/02 05:15:30;;;;;;;10.27;4.35;;;-3.80;99.90;;;;;;5048611;28;20037;-61
2023/03/02 05:17:56;;;;;;;10.63;4.57;;;-3.80;99.90;;;;;;5086339;28;20040;-61
2023/03/02 05:20:26;;;;;;;14.10;4.70;;;-3.80;99.90;;;;;;5068764;28;20028;-62
2023/03/02 05:22:55;;;;;;;9.43;4.20;;;-3.80;99.90;;;;;;5086025;28;20021;-62
2023/03/02 05:25:22;;;;;;;7.88;3.83;;;-3.80;99.90;;;;;;5068468;28;20071;-62
2023/03/02 05:27:48;;;;;;;14.52;4.97;;;-3.80;99.90;;;;;;5085913;28;20422;-62
2023/03/02 05:30:13;;;;;;;13.25;5.13;;;-3.80;99.90;;;;;;5068790;28;20503;-64
2023/03/02 05:32:39;;;;;;;13.85;5.75;;;-3.80;99.90;;;;;;5085833;28;20029;-63
2023/03/02 05:35:05;;;;;;;16.55;5.68;;;-3.80;99.90;;;;;;5068755;28;20095;-62
2023/03/02 05:37:31;;;;;;;12.45;4.68;;;-3.90;99.90;;;;;;5085340;28;20053;-67
2023/03/02 05:39:56;;;;;;;13.55;6.07;;;-3.80;99.90;;;;;;5056763;28;20048;-62
2023/03/02 05:42:22;;;;;;;11.40;4.72;;;-3.80;99.90;;;;;;5086933;28;20082;-63
2023/03/02 05:44:48;;;;;;;11.82;5.00;;;-3.80;99.90;;;;;;5051472;28;20052;-62
2023/03/02 05:47:13;;;;;;;12.77;5.38;;;-3.80;99.90;;;;;;5067582;28;20381;-62
2023/03/02 05:49:38;;;;;;;12.05;6.00;;;-3.80;99.90;;;;;;5071202;28;20039;-62
2023/03/02 05:52:04;;;;;;;19.08;6.95;;;-3.80;99.90;;;;;;5076560;28;20028;-62
2023/03/02 05:54:29;;;;;;;56.25;14.30;;;-3.80;99.90;;;;;;5054034;28;20116;-62
2023/03/02 05:56:55;;;;;;;21.77;9.20;;;-3.70;99.90;;;;;;5067233;28;20036;-62
2023/03/02 05:59:20;;;;;;;40.72;12.55;;;-3.70;99.90;;;;;;5073922;28;20029;-62
2023/03/02 06:01:47;;;;;;;31.55;11.23;;;-3.70;99.90;;;;;;5087581;28;20413;-63
2023/03/02 06:04:12;;;;;;;34.17;10.52;;;-3.70;99.90;;;;;;5066428;28;20021;-63
2023/03/02 06:06:38;;;;;;;24.02;9.40;;;-3.60;99.90;;;;;;5080944;28;20038;-62
2023/03/02 06:09:03;;;;;;;24.88;8.15;;;-3.60;99.90;;;;;;5066208;28;20041;-62
2023/03/02 06:11:29;;;;;;;22.98;9.48;;;-3.60;99.90;;;;;;5086789;28;20040;-62
2023/03/02 06:13:54;;;;;;;26.25;9.43;;;-3.50;99.90;;;;;;5066027;28;20063;-62
2023/03/02 06:16:20;;;;;;;22.70;8.98;;;-3.50;99.90;;;;;;5087186;28;20039;-62
2023/03/02 06:18:46;;;;;;;21.95;8.20;;;-3.40;99.90;;;;;;5065959;28;20050;-62
2023/03/02 06:21:11;;;;;;;21.60;8.88;;;-3.40;99.90;;;;;;5067247;28;20032;-62
2023/03/02 06:23:37;;;;;;;21.85;8.65;;;-3.40;99.90;;;;;;5085054;28;20040;-61
2023/03/02 06:26:10;;;;;;;22.10;9.25;;;-3.30;99.90;;;;;;5087519;28;20393;-61
2023/03/02 06:28:36;;;;;;;18.17;7.93;;;-3.20;99.90;;;;;;5065703;28;20480;-61
2023/03/02 06:31:02;;;;;;;18.73;6.80;;;-3.10;99.90;;;;;;5067525;28;20107;-62
2023/03/02 06:33:29;;;;;;;19.63;8.15;;;-2.90;99.90;;;;;;5087127;28;20024;-61
2023/03/02 06:35:54;;;;;;;17.42;7.38;;;-2.40;99.90;;;;;;5092061;28;20097;-62
2023/03/02 06:38:20;;;;;;;15.23;6.72;;;-1.80;99.90;;;;;;5064977;28;20020;-62
2023/03/02 06:40:45;;;;;;;19.33;8.52;;;-1.40;99.90;;;;;;5069406;28;20101;-62
2023/03/02 06:43:11;;;;;;;18.88;7.05;;;-1.00;99.90;;;;;;5068173;28;20437;-62
2023/03/02 06:45:37;;;;;;;18.45;8.77;;;-0.60;99.90;;;;;;5076963;28;20530;-62
2023/03/02 06:48:03;;;;;;;19.25;9.00;;;-0.30;98.80;;;;;;5089416;28;20031;-62
2023/03/02 06:50:29;;;;;;;22.58;9.20;;;0.10;97.40;;;;;;5071714;28;20039;-61
2023/03/02 06:52:55;;;;;;;22.73;9.40;;;0.30;95.50;;;;;;5087195;28;20031;-62
2023/03/02 06:55:21;;;;;;;18.48;8.57;;;0.40;94.30;;;;;;5070963;28;20034;-62
2023/03/02 06:57:46;;;;;;;18.23;8.85;;;0.30;93.70;;;;;;5088481;28;20035;-62
2023/03/02 07:00:15;;;;;;;19.63;8.60;;;0.20;93.40;;;;;;5090850;28;20028;-62
2023/03/02 07:02:42;;;;;;;17.48;8.73;;;0.10;93.70;;;;;;5068722;28;20318;-62
2023/03/02 07:05:07;;;;;;;31.30;13.18;;;0.00;94.20;;;;;;5072461;28;20152;-62
2023/03/02 07:07:33;;;;;;;37.47;16.25;;;-0.10;99.90;;;;;;5088550;28;20044;-62
2023/03/02 07:09:58;;;;;;;40.13;16.88;;;-0.20;99.90;;;;;;5090551;28;20107;-62
2023/03/02 07:12:24;;;;;;;42.13;16.08;;;-0.20;99.90;;;;;;5068814;28;20064;-62
2023/03/02 07:14:49;;;;;;;39.35;16.55;;;-0.20;99.90;;;;;;5070775;28;20099;-62
2023/03/02 07:17:15;;;;;;;40.92;17.95;;;-0.20;99.90;;;;;;5087597;28;20438;-62
2023/03/02 07:19:40;;;;;;;44.25;19.13;;;-0.10;99.90;;;;;;5090738;28;20060;-62
2023/03/02 07:22:06;;;;;;;36.60;17.00;;;-0.10;99.90;;;;;;5068717;28;20044;-62
2023/03/02 07:24:31;;;;;;;47.08;20.33;;;-0.10;99.90;;;;;;5069961;28;20031;-62
2023/03/02 07:26:57;;;;;;;48.08;17.90;;;-0.20;99.90;;;;;;5087852;28;20240;-61
2023/03/02 07:29:22;;;;;;;36.70;15.48;;;-0.10;99.90;;;;;;5090340;28;20016;-62
2023/03/02 07:31:54;;;;;;;47.65;19.00;;;-0.10;99.90;;;;;;5070448;28;20036;-62
2023/03/02 07:34:19;;;;;;;43.83;18.35;;;-0.10;99.90;;;;;;5067770;28;20025;-62
2023/03/02 07:36:45;;;;;;;37.85;16.73;;;0.00;99.90;;;;;;5089505;28;20042;-62
2023/03/02 07:39:10;;;;;;;41.30;16.33;;;0.10;99.90;;;;;;5048693;28;20059;-62
2023/03/02 07:41:36;;;;;;;40.42;17.02;;;0.10;99.90;;;;;;5068697;28;20127;-63
2023/03/02 07:44:01;;;;;;;45.40;18.60;;;0.20;99.90;;;;;;5069822;28;20040;-62
2023/03/02 07:46:27;;;;;;;39.35;16.27;;;0.30;99.90;;;;;;5088821;28;20445;-62
2023/03/02 07:48:52;;;;;;;44.97;19.83;;;0.30;99.90;;;;;;5052305;28;20480;-62
2023/03/02 07:51:18;;;;;;;44.28;19.25;;;0.30;99.90;;;;;;5069226;28;20032;-62
2023/03/02 07:53:43;;;;;;;55.58;18.23;;;0.20;99.90;;;;;;5072251;28;20071;-62
2023/03/02 07:56:10;;;;;;;47.78;19.33;;;0.20;99.90;;;;;;5088808;28;20028;-62
2023/03/02 07:58:36;;;;;;;52.90;18.02;;;0.30;99.90;;;;;;5054533;28;20412;-62
2023/03/02 08:01:03;;;;;;;52.55;20.80;;;0.40;99.90;;;;;;5068681;28;20032;-62
2023/03/02 08:03:29;;;;;;;42.70;17.75;;;0.30;99.90;;;;;;5074192;28;20389;-62
2023/03/02 08:05:54;;;;;;;50.28;18.83;;;0.30;99.90;;;;;;5085105;28;20047;-62
2023/03/02 08:08:20;;;;;;;39.45;17.35;;;0.40;99.90;;;;;;5056491;28;20041;-62
2023/03/02 08:10:45;;;;;;;37.70;16.08;;;0.50;99.90;;;;;;5068245;28;20090;-62
2023/03/02 08:13:11;;;;;;;54.10;19.27;;;0.60;99.90;;;;;;5086916;28;20212;-62
2023/03/02 08:15:36;;;;;;;42.22;18.23;;;0.60;99.90;;;;;;5069548;28;20058;-62
2023/03/02 08:18:02;;;;;;;36.95;16.63;;;0.60;99.90;;;;;;5086332;28;20055;-62
2023/03/02 08:20:27;;;;;;;47.22;17.95;;;0.70;99.90;;;;;;5069626;28;20032;-63
2023/03/02 08:22:53;;;;;;;48.35;21.23;;;0.70;99.90;;;;;;5086322;28;20062;-62
2023/03/02 08:25:18;;;;;;;49.10;20.67;;;0.50;99.90;;;;;;5069196;28;20308;-62
2023/03/02 08:27:44;;;;;;;52.03;24.70;;;0.50;99.90;;;;;;5086706;28;20028;-62
2023/03/02 08:30:11;;;;;;;45.83;21.90;;;0.40;99.90;;;;;;5088997;28;20049;-62
2023/03/02 08:32:37;;;;;;;54.00;21.88;;;0.40;99.90;;;;;;5066967;28;20445;-62
2023/03/02 08:35:04;;;;;;;39.30;18.45;;;0.40;99.90;;;;;;5068867;28;20217;-63
2023/03/02 08:37:29;;;;;;;53.10;21.73;;;0.40;99.90;;;;;;5086529;28;20013;-62
2023/03/02 08:39:55;;;;;;;42.15;18.25;;;0.50;99.90;;;;;;5088752;28;20028;-62
2023/03/02 08:42:20;;;;;;;41.33;17.63;;;0.60;99.90;;;;;;5066972;28;20492;-62
2023/03/02 08:44:46;;;;;;;33.63;16.05;;;0.70;99.90;;;;;;5068902;28;20037;-62
2023/03/02 08:47:11;;;;;;;47.03;18.38;;;0.80;99.90;;;;;;5085836;28;20380;-62
2023/03/02 08:49:37;;;;;;;42.95;19.02;;;0.70;99.90;;;;;;5088710;28;20024;-62
2023/03/02 08:52:03;;;;;;;37.85;16.38;;;0.60;99.90;;;;;;5066917;28;20040;-62
2023/03/02 08:54:30;;;;;;;36.28;16.40;;;0.70;99.90;;;;;;5068170;28;20032;-62
2023/03/02 08:56:56;;;;;;;41.30;17.35;;;0.80;99.90;;;;;;5087047;28;20191;-62
2023/03/02 08:59:22;;;;;;;47.00;19.85;;;0.90;99.90;;;;;;5088562;28;20111;-62
2023/03/02 09:01:47;;;;;;;52.17;19.23;;;0.80;99.90;;;;;;5068515;28;20067;-62
2023/03/02 09:04:13;;;;;;;53.00;20.92;;;0.80;99.90;;;;;;5067314;28;20033;-66
2023/03/02 09:06:41;;;;;;;48.10;20.10;;;0.80;99.90;;;;;;5084064;28;20107;-65
2023/03/02 09:09:08;;;;;;;46.30;17.17;;;0.80;99.90;;;;;;5048442;28;20083;-65
2023/03/02 09:11:34;;;;;;;44.35;18.10;;;0.90;99.90;;;;;;5067351;28;20028;-66
2023/03/02 09:14:00;;;;;;;40.63;18.38;;;1.00;99.90;;;;;;5068640;28;20082;-66
2023/03/02 09:16:26;;;;;;;43.28;18.17;;;1.10;99.90;;;;;;5087796;28;20036;-71
2023/03/02 09:18:52;;;;;;;45.72;18.50;;;1.10;99.90;;;;;;5050733;28;20036;-71
2023/03/02 09:21:18;;;;;;;45.50;20.50;;;1.30;99.90;;;;;;5086762;28;20100;-71
2023/03/02 09:23:44;;;;;;;44.45;17.95;;;1.30;99.90;;;;;;5052011;28;20116;-72
2023/03/02 09:26:10;;;;;;;39.95;16.42;;;1.40;99.90;;;;;;5067129;28;20115;-71
2023/03/02 09:28:37;;;;;;;40.10;16.45;;;1.60;99.90;;;;;;5071780;28;20224;-71
2023/03/02 09:31:05;;;;;;;40.25;18.00;;;1.70;99.90;;;;;;5087810;28;20027;-72
2023/03/02 09:33:31;;;;;;;55.58;21.48;;;1.70;99.90;;;;;;5053208;28;20404;-71
2023/03/02 09:35:57;;;;;;;53.92;20.83;;;1.60;99.90;;;;;;5067237;28;20037;-71
2023/03/02 09:38:23;;;;;;;49.10;20.10;;;1.50;99.90;;;;;;5073598;28;20040;-71
2023/03/02 09:40:48;;;;;;;47.00;19.00;;;1.30;99.90;;;;;;5087079;28;20502;-72
2023/03/02 09:43:22;;;;;;;39.55;15.30;;;1.30;99.90;;;;;;5066124;28;20029;-71
2023/03/02 09:46:19;;;;;;;42.25;16.08;;;1.40;99.90;;;;;;5047564;28;20029;-72
2023/03/02 09:48:52;;;;;;;42.08;15.35;;;1.50;99.90;;;;;;5061143;28;20040;-71
2023/03/02 09:51:42;;;;;;;48.33;18.08;;;1.80;99.90;;;;;;5048065;28;20098;-69
2023/03/02 09:54:15;;;;;;;41.40;15.45;;;1.80;99.90;;;;;;5062829;28;20506;-68
2023/03/02 09:56:48;;;;;;;40.97;15.55;;;1.70;99.90;;;;;;5087512;28;20032;-68
2023/03/02 09:59:34;;;;;;;44.05;15.50;;;1.80;99.90;;;;;;5047091;28;20057;-68
2023/03/02 10:02:19;;;;;;;46.78;16.90;;;2.00;99.90;;;;;;5046522;28;20116;-68
2023/03/02 10:04:49;;;;;;;49.63;17.88;;;2.10;99.90;;;;;;5081570;28;20032;-67
2023/03/02 10:07:18;;;;;;;48.72;18.33;;;2.20;99.90;;;;;;5065505;28;20032;-69
2023/03/02 10:09:44;;;;;;;47.97;19.38;;;2.20;99.90;;;;;;5071841;28;20028;-69
2023/03/02 10:12:34;;;;;;;44.50;15.98;;;2.30;99.90;;;;;;5089382;28;20016;-69
2023/03/02 10:15:19;;;;;;;50.55;16.63;;;2.40;99.90;;;;;;5091804;28;20028;-69
2023/03/02 10:17:58;;;;;;;49.22;17.45;;;2.60;99.90;;;;;;5062498;28;20456;-69
2023/03/02 10:20:44;;;;;;;52.78;19.27;;;2.50;99.90;;;;;;5091729;28;20382;-69
2023/03/02 10:23:20;;;;;;;51.10;18.13;;;2.50;99.90;;;;;;5069409;28;20515;-69
2023/03/02 10:25:51;;;;;;;56.10;19.52;;;2.60;99.90;;;;;;5051581;28;20473;-68
2023/03/02 10:28:20;;;;;;;59.95;21.23;;;2.50;99.90;;;;;;5071422;28;20047;-69
2023/03/02 10:30:52;;;;;;;41.50;18.20;;;2.50;99.90;;;;;;5071077;28;20507;-69
2023/03/02 10:33:19;;;;;;;49.90;18.58;;;2.50;99.90;;;;;;5071487;28;20115;-67
2023/03/02 10:35:47;;;;;;;49.72;19.00;;;2.40;99.90;;;;;;5071160;28;20055;-69
2023/03/02 10:38:18;;;;;;;57.40;21.00;;;2.40;99.90;;;;;;5089081;28;20456;-69
2023/03/02 10:41:07;;;;;;;58.30;21.50;;;2.40;99.90;;;;;;5051311;28;20401;-68
2023/03/02 10:43:38;;;;;;;62.00;23.10;;;2.30;99.90;;;;;;5075801;28;20127;-69
2023/03/02 10:46:06;;;;;;;47.40;18.65;;;2.20;99.90;;;;;;5051160;28;20473;-69
2023/03/02 10:48:37;;;;;;;54.20;20.00;;;2.20;99.90;;;;;;5075154;28;20441;-68
2023/03/02 10:51:03;;;;;;;49.88;19.75;;;2.30;99.90;;;;;;5050749;28;20033;-68
2023/03/02 10:53:28;;;;;;;56.08;21.20;;;2.40;99.90;;;;;;5074865;28;20127;-68
2023/03/02 10:55:54;;;;;;;54.13;20.70;;;2.40;99.90;;;;;;5090369;28;20035;-68
2023/03/02 10:58:28;;;;;;;50.47;18.92;;;2.40;99.90;;;;;;5057744;28;20021;-68
2023/03/02 11:01:01;;;;;;;42.22;18.15;;;2.40;99.90;;;;;;5050553;28;20093;-69
2023/03/02 11:03:27;;;;;;;43.55;15.68;;;2.50;99.90;;;;;;5088359;28;20024;-68
2023/03/02 11:05:53;;;;;;;42.40;16.48;;;2.60;99.90;;;;;;5067016;28;20025;-68
2023/03/02 11:08:21;;;;;;;37.60;15.65;;;2.80;99.90;;;;;;5076670;28;20077;-68
2023/03/02 11:10:59;;;;;;;40.88;17.60;;;2.90;99.90;;;;;;5090531;28;20178;-68
2023/03/02 11:13:27;;;;;;;37.97;14.40;;;3.00;99.50;;;;;;5056542;28;20544;-68
2023/03/02 11:16:00;;;;;;;36.00;14.85;;;3.10;99.80;;;;;;5070284;28;20032;-69
2023/03/02 11:18:53;;;;;;;38.72;14.52;;;3.40;99.80;;;;;;5056275;28;20025;-70
2023/03/02 11:21:29;;;;;;;40.58;15.50;;;3.70;97.00;;;;;;5089239;28;20506;-69
2023/03/02 11:24:15;;;;;;;41.50;15.43;;;3.50;95.70;;;;;;5064635;28;20075;-70
2023/03/02 11:26:52;;;;;;;37.63;16.60;;;3.50;94.50;;;;;;5050247;28;20394;-70
2023/03/02 11:29:33;;;;;;;46.53;17.35;;;3.40;96.10;;;;;;5067693;28;20025;-68
2023/03/02 11:32:07;;;;;;;41.65;16.90;;;3.30;96.60;;;;;;5048606;28;20057;-69
2023/03/02 11:34:53;;;;;;;53.40;19.77;;;3.20;97.60;;;;;;5090501;28;20069;-70
2023/03/02 11:37:38;;;;;;;48.17;17.02;;;3.00;98.50;;;;;;5053992;28;20051;-70
2023/03/02 11:40:21;;;;;;;50.97;18.42;;;2.90;99.50;;;;;;5089869;28;20040;-70
2023/03/02 11:42:47;;;;;;;48.53;18.35;;;2.80;99.90;;;;;;5061896;28;20157;-70
2023/03/02 11:45:12;;;;;;;51.80;20.00;;;2.80;99.90;;;;;;5090150;28;20103;-70
2023/03/02 11:47:50;;;;;;;46.40;18.70;;;2.90;99.90;;;;;;5068148;28;20033;-69
2023/03/02 11:50:16;;;;;;;53.42;20.33;;;2.90;99.90;;;;;;5069593;28;20025;-69
2023/03/02 11:52:50;;;;;;;44.70;17.95;;;2.90;99.90;;;;;;5087220;28;20024;-69
2023/03/02 11:55:24;;;;;;;48.50;20.33;;;2.80;99.90;;;;;;5089851;28;20024;-70
2023/03/02 11:57:55;;;;;;;49.88;20.95;;;2.70;99.90;;;;;;5062221;28;20489;-69
2023/03/02 12:00:31;;;;;;;58.08;23.63;;;2.70;99.90;;;;;;5069544;28;20016;-68
2023/03/02 12:03:02;;;;;;;51.17;21.15;;;2.60;99.90;;;;;;5063882;28;20456;-69
2023/03/02 12:05:31;;;;;;;49.30;21.05;;;2.50;99.90;;;;;;5062358;28;20044;-69
2023/03/02 12:07:59;;;;;;;48.97;19.83;;;2.50;99.90;;;;;;5067025;28;20036;-70
2023/03/02 12:10:40;;;;;;;45.53;18.83;;;2.50;99.90;;;;;;5088793;28;20263;-70
2023/03/02 12:13:13;;;;;;;47.45;19.45;;;2.50;99.90;;;;;;5069438;28;20115;-71
2023/03/02 12:15:42;;;;;;;46.25;20.70;;;2.40;99.90;;;;;;5090043;28;20031;-70
2023/03/02 12:18:20;;;;;;;44.05;19.27;;;2.40;99.90;;;;;;5051624;28;20496;-70
2023/03/02 12:21:06;;;;;;;42.78;19.35;;;2.30;99.90;;;;;;5068985;28;20130;-70
2023/03/02 12:23:34;;;;;;;40.25;17.02;;;2.40;99.90;;;;;;5047967;28;20035;-70
2023/03/02 12:26:20;;;;;;;40.03;16.67;;;2.60;99.90;;;;;;5089044;28;20035;-70
2023/03/02 12:29:10;;;;;;;41.08;18.02;;;2.70;99.90;;;;;;5045514;28;20052;-70
2023/03/02 12:31:44;;;;;;;42.70;19.05;;;2.70;99.90;;;;;;5085097;28;20020;-70
2023/03/02 12:34:36;;;;;;;44.17;18.15;;;2.70;99.90;;;;;;5067022;28;20013;-70
2023/03/02 12:37:36;;;;;;;40.17;16.48;;;2.70;99.90;;;;;;5087526;28;20027;-70
2023/03/02 12:40:30;;;;;;;34.30;16.10;;;2.70;99.90;;;;;;5089324;28;20024;-70
2023/03/02 12:43:25;;;;;;;43.85;19.83;;;2.80;99.90;;;;;;5062033;28;20123;-70
2023/03/02 12:46:15;;;;;;;44.42;17.83;;;2.80;99.90;;;;;;5049214;28;20551;-71
2023/03/02 12:48:58;;;;;;;44.33;19.92;;;2.80;99.90;;;;;;5049121;28;20052;-71
2023/03/02 12:51:26;;;;;;;47.42;19.10;;;2.80;99.90;;;;;;5050196;28;20497;-70